Time;durP1;ratioP1;P1;durP2;ratioP2;P2;SDS_P1;SDS_P2;PMS_P1;PMS_P2;Temp;Humidity;BMP_temperature;BMP_pressure;BME280_temperature;BME280_humidity;BME280_pressure;Samples;Min_cycle;Max_cycle;Signal;HPM_P1;HPM_P2
2022/04/29 00:06:06;;;;;;;13.32;7.20;;;5.40;99.90;;;;;;4935154;29;20043;-62
2022/04/29 00:08:31;;;;;;;10.75;6.95;;;5.40;99.90;;;;;;4937189;29;20047;-62
2022/04/29 00:10:57;;;;;;;13.25;7.50;;;5.40;99.90;;;;;;4934287;29;20047;-61
2022/04/29 00:13:23;;;;;;;14.00;8.18;;;5.50;99.90;;;;;;4933893;29;20038;-61
2022/04/29 00:26:10;;;;;;;15.05;7.85;;;5.50;99.90;;;;;;5362149;23;20051;-61
2022/04/29 00:28:36;;;;;;;14.73;7.55;;;5.60;99.90;;;;;;4935194;29;20062;-61
2022/04/29 00:31:01;;;;;;;18.58;7.72;;;5.60;99.90;;;;;;4940469;29;20065;-61
2022/04/29 00:36:37;;;;;;;19.25;7.90;;;5.60;99.90;;;;;;5465861;23;20047;-62
2022/04/29 00:39:03;;;;;;;12.32;7.90;;;5.60;99.90;;;;;;4955220;28;20110;-61
2022/04/29 00:41:29;;;;;;;16.20;7.95;;;5.60;99.90;;;;;;4954984;29;20118;-62
2022/04/29 00:44:02;;;;;;;19.02;7.50;;;5.70;99.90;;;;;;4951287;29;20335;-61
2022/04/29 00:51:42;;;;;;;21.50;7.35;;;5.60;99.90;;;;;;5647264;23;20461;-61
2022/04/29 00:54:12;;;;;;;15.05;8.18;;;5.60;99.90;;;;;;4950810;29;20482;-61
2022/04/29 01:01:50;;;;;;;17.48;7.53;;;5.40;99.90;;;;;;5404560;23;20528;-62
2022/04/29 01:04:27;;;;;;;14.32;8.18;;;5.20;99.90;;;;;;4953883;29;20122;-62
2022/04/29 01:06:52;;;;;;;17.30;7.47;;;5.20;99.90;;;;;;4923888;29;20042;-61
2022/04/29 01:23:21;;;;;;;17.38;7.82;;;4.90;99.90;;;;;;5353027;23;20066;-60
2022/04/29 01:25:47;;;;;;;18.08;7.65;;;4.90;99.90;;;;;;4973228;28;20047;-61
2022/04/29 01:28:13;;;;;;;18.65;8.48;;;4.90;99.90;;;;;;4966066;28;20038;-61
2022/04/29 01:33:06;;;;;;;14.38;7.28;;;4.80;99.90;;;;;;4971929;28;20046;-60
2022/04/29 01:35:32;;;;;;;12.95;7.28;;;4.80;99.90;;;;;;4963466;28;20482;-60
2022/04/29 01:37:58;;;;;;;20.35;8.60;;;4.80;99.90;;;;;;4966341;28;20038;-60
2022/04/29 01:40:23;;;;;;;14.13;7.25;;;4.80;99.90;;;;;;4973344;28;20242;-60
2022/04/29 01:42:49;;;;;;;11.00;5.60;;;4.80;99.90;;;;;;4973419;28;20046;-60
2022/04/29 01:51:32;;;;;;;11.55;6.18;;;4.50;99.90;;;;;;5527678;23;20066;-60
2022/04/29 01:53:57;;;;;;;13.30;6.03;;;4.50;99.90;;;;;;4947366;29;20039;-60
2022/04/29 01:59:33;;;;;;;14.75;6.18;;;4.40;99.90;;;;;;5750656;23;20069;-61
2022/04/29 02:05:15;;;;;;;15.00;7.18;;;4.30;99.90;;;;;;5789200;23;20413;-61
2022/04/29 02:07:44;;;;;;;16.13;7.10;;;4.30;99.90;;;;;;4948567;29;20123;-61
2022/04/29 02:10:09;;;;;;;17.80;7.95;;;4.20;99.90;;;;;;4918768;29;20498;-61
2022/04/29 02:36:53;;;;;;;12.60;6.65;;;4.20;99.90;;;;;;5650963;23;20054;-61
2022/04/29 02:39:19;;;;;;;17.35;8.02;;;4.20;99.90;;;;;;4993901;28;20050;-61
2022/04/29 02:44:20;;;;;;;14.73;7.55;;;4.20;99.90;;;;;;5669540;23;20062;-61
2022/04/29 02:54:42;;;;;;;13.95;7.72;;;4.20;99.90;;;;;;5250274;23;20073;-61
2022/04/29 02:59:42;;;;;;;17.77;7.30;;;4.30;99.90;;;;;;5548068;23;20056;-61
2022/04/29 03:02:08;;;;;;;19.20;8.13;;;4.30;99.90;;;;;;4963803;28;20045;-61
2022/04/29 03:04:34;;;;;;;13.95;7.47;;;4.30;99.90;;;;;;4968651;28;20074;-62
2022/04/29 03:07:00;;;;;;;23.05;9.00;;;4.40;99.90;;;;;;4929859;28;20064;-62
2022/04/29 03:19:59;;;;;;;21.10;8.13;;;4.40;99.90;;;;;;4965104;28;20047;-62
2022/04/29 03:22:26;;;;;;;15.15;8.13;;;4.40;99.90;;;;;;4958993;28;20150;-61
2022/04/29 03:24:51;;;;;;;15.50;6.95;;;4.50;99.90;;;;;;4963792;28;20046;-62
2022/04/29 03:35:46;;;;;;;16.95;8.77;;;4.30;99.90;;;;;;4931797;29;20043;-61
2022/04/29 03:38:12;;;;;;;13.60;7.22;;;4.40;99.90;;;;;;4929754;29;20060;-61
2022/04/29 03:44:08;;;;;;;16.85;8.05;;;4.40;99.90;;;;;;5969474;23;20055;-62
2022/04/29 03:46:34;;;;;;;17.42;8.60;;;4.30;99.90;;;;;;4939038;28;20047;-62
2022/04/29 03:51:44;;;;;;;15.18;7.80;;;4.10;99.90;;;;;;4954712;28;20044;-63
2022/04/29 03:54:09;;;;;;;14.45;7.65;;;4.10;99.90;;;;;;4954725;29;20036;-64
2022/04/29 03:56:35;;;;;;;21.90;7.93;;;4.10;99.90;;;;;;4952027;28;20067;-63
2022/04/29 03:59:01;;;;;;;19.40;7.97;;;4.10;99.90;;;;;;4941302;28;20500;-64
2022/04/29 04:01:28;;;;;;;22.70;8.02;;;4.10;99.90;;;;;;4935092;29;20043;-64
2022/04/29 04:03:53;;;;;;;15.07;7.63;;;4.10;99.90;;;;;;4931151;29;20443;-64
2022/04/29 04:09:03;;;;;;;19.55;7.68;;;4.10;99.90;;;;;;4927513;29;20526;-64
2022/04/29 04:11:28;;;;;;;19.88;8.48;;;4.10;99.90;;;;;;4936850;29;20043;-63
2022/04/29 04:13:54;;;;;;;20.58;7.97;;;4.20;99.90;;;;;;4934776;29;20074;-64
2022/04/29 04:16:23;;;;;;;17.33;7.38;;;4.20;99.90;;;;;;4935664;29;20051;-63
2022/04/29 04:18:48;;;;;;;22.98;8.43;;;4.20;99.90;;;;;;4931491;28;20042;-63
2022/04/29 04:21:14;;;;;;;15.85;8.07;;;4.20;99.90;;;;;;4931231;29;20118;-64
2022/04/29 04:23:39;;;;;;;23.10;9.00;;;4.20;99.90;;;;;;4934068;29;20115;-64
2022/04/29 04:26:05;;;;;;;14.63;8.18;;;4.30;99.90;;;;;;4935065;29;20123;-63
2022/04/29 04:28:30;;;;;;;19.08;8.13;;;4.30;99.90;;;;;;4941504;28;20070;-63
2022/04/29 04:30:56;;;;;;;18.02;7.93;;;4.30;99.90;;;;;;4932886;29;20051;-63
2022/04/29 04:33:21;;;;;;;18.35;8.20;;;4.30;99.90;;;;;;4930852;29;20051;-63
2022/04/29 04:35:47;;;;;;;17.17;8.40;;;4.30;99.90;;;;;;4933610;29;20040;-63
2022/04/29 04:38:14;;;;;;;21.38;7.88;;;4.30;99.90;;;;;;4932751;29;20042;-63
2022/04/29 04:40:40;;;;;;;20.42;8.63;;;4.40;99.90;;;;;;4934624;29;20043;-64
2022/04/29 04:43:06;;;;;;;16.70;8.32;;;4.50;99.90;;;;;;4924430;29;20135;-64
2022/04/29 04:45:31;;;;;;;19.50;8.48;;;4.50;99.90;;;;;;4933226;29;20134;-64
2022/04/29 04:47:57;;;;;;;18.77;8.05;;;4.60;99.90;;;;;;4930541;29;20076;-63
2022/04/29 04:50:23;;;;;;;14.23;7.45;;;4.60;99.90;;;;;;4927164;29;20055;-64
2022/04/29 04:52:48;;;;;;;18.48;7.60;;;4.70;99.90;;;;;;4929369;29;20051;-64
2022/04/29 04:55:14;;;;;;;16.00;7.05;;;4.80;99.90;;;;;;4918446;29;20044;-63
2022/04/29 04:57:39;;;;;;;23.40;8.38;;;4.80;99.90;;;;;;4920741;29;20071;-63
2022/04/29 05:00:06;;;;;;;14.20;8.23;;;4.90;99.90;;;;;;4930284;29;20055;-64
2022/04/29 05:02:31;;;;;;;18.27;8.10;;;5.00;99.90;;;;;;4929541;29;20566;-64
2022/04/29 05:04:57;;;;;;;16.92;8.75;;;5.00;99.90;;;;;;4930590;29;20089;-64
2022/04/29 05:07:23;;;;;;;16.23;9.00;;;5.10;99.90;;;;;;4929286;29;20052;-64
2022/04/29 05:09:48;;;;;;;20.65;8.57;;;5.20;99.90;;;;;;4933524;28;20062;-64
2022/04/29 05:12:14;;;;;;;20.70;9.00;;;5.30;99.90;;;;;;4929865;29;20094;-63
2022/04/29 05:14:40;;;;;;;20.02;8.65;;;5.40;99.90;;;;;;4934705;29;20048;-63
2022/04/29 05:17:05;;;;;;;21.85;9.02;;;5.40;99.90;;;;;;4934433;29;20027;-63
2022/04/29 05:19:31;;;;;;;19.73;9.32;;;5.60;99.90;;;;;;4929775;29;20596;-63
2022/04/29 05:21:56;;;;;;;21.48;9.38;;;5.70;99.90;;;;;;4929552;29;20028;-67
2022/04/29 05:24:22;;;;;;;18.30;9.43;;;5.90;99.90;;;;;;4935010;29;20486;-63
2022/04/29 05:26:47;;;;;;;20.70;9.25;;;6.00;99.90;;;;;;4934505;29;20032;-64
2022/04/29 05:29:13;;;;;;;28.70;9.70;;;6.10;99.90;;;;;;4921585;29;20043;-64
2022/04/29 05:31:39;;;;;;;18.25;9.18;;;6.30;99.90;;;;;;4931472;29;20050;-63
2022/04/29 05:34:06;;;;;;;23.25;8.68;;;6.40;99.90;;;;;;4943575;29;20051;-63
2022/04/29 05:36:34;;;;;;;20.42;9.20;;;6.60;99.90;;;;;;4928880;29;20581;-63
2022/04/29 05:44:29;;;;;;;18.02;8.43;;;6.90;99.90;;;;;;4931903;28;20686;-63
2022/04/29 05:46:54;;;;;;;21.50;9.07;;;7.00;99.90;;;;;;4939336;29;20047;-64
2022/04/29 05:49:20;;;;;;;18.60;8.57;;;7.10;99.90;;;;;;4937031;28;20050;-63
2022/04/29 05:51:45;;;;;;;18.77;8.90;;;7.20;99.90;;;;;;4931132;29;20051;-63
2022/04/29 05:54:11;;;;;;;17.40;9.05;;;7.20;99.90;;;;;;4931774;29;20051;-63
2022/04/29 05:56:36;;;;;;;16.20;8.45;;;7.30;99.90;;;;;;4931062;29;20046;-64
2022/04/29 05:59:02;;;;;;;20.60;8.50;;;7.30;99.90;;;;;;4940279;28;20453;-63
2022/04/29 06:01:28;;;;;;;18.70;8.45;;;7.40;99.90;;;;;;4932786;29;20482;-63
2022/04/29 06:03:53;;;;;;;15.85;8.65;;;7.40;99.90;;;;;;4939706;29;20506;-63
2022/04/29 06:06:19;;;;;;;22.60;8.35;;;7.50;99.90;;;;;;4935726;29;20091;-64
2022/04/29 06:08:45;;;;;;;17.45;8.25;;;7.50;99.90;;;;;;4925192;29;20078;-63
2022/04/29 06:11:10;;;;;;;19.65;9.05;;;7.60;99.90;;;;;;4929000;29;20039;-63
2022/04/29 06:13:37;;;;;;;21.45;8.20;;;7.50;99.90;;;;;;4935484;29;20103;-62
2022/04/29 06:16:05;;;;;;;15.35;8.60;;;7.60;99.90;;;;;;4925542;29;20042;-63
2022/04/29 06:18:32;;;;;;;20.52;9.05;;;7.70;99.90;;;;;;4924250;29;20039;-63
2022/04/29 06:20:58;;;;;;;15.88;8.60;;;7.70;99.90;;;;;;4932329;29;20032;-63
2022/04/29 06:23:23;;;;;;;18.88;9.38;;;7.80;99.90;;;;;;4932453;29;20046;-63
2022/04/29 06:25:49;;;;;;;18.50;7.97;;;7.80;99.90;;;;;;4935415;29;20052;-64
2022/04/29 06:28:15;;;;;;;17.40;9.85;;;7.90;99.90;;;;;;4924132;29;20127;-63
2022/04/29 06:30:41;;;;;;;18.73;9.02;;;7.90;99.90;;;;;;4929538;29;20079;-64
2022/04/29 06:33:07;;;;;;;19.70;8.82;;;8.00;99.90;;;;;;4934486;29;20039;-61
2022/04/29 06:35:35;;;;;;;16.75;8.18;;;8.00;99.90;;;;;;4925138;29;20048;-63
2022/04/29 06:38:00;;;;;;;15.68;8.07;;;8.10;99.90;;;;;;4930681;28;20047;-63
2022/04/29 06:40:27;;;;;;;17.40;9.15;;;8.20;99.90;;;;;;4933190;29;20043;-63
2022/04/29 06:42:53;;;;;;;17.38;8.68;;;8.30;99.90;;;;;;4939013;29;20047;-63
2022/04/29 06:45:18;;;;;;;15.45;8.35;;;8.30;99.90;;;;;;4932457;29;20039;-63
2022/04/29 06:47:44;;;;;;;21.30;9.27;;;8.40;99.90;;;;;;4941719;29;20399;-63
2022/04/29 06:50:12;;;;;;;14.10;8.27;;;8.50;99.90;;;;;;4937350;28;20070;-63
2022/04/29 06:52:38;;;;;;;15.02;8.18;;;8.50;99.90;;;;;;4936164;29;20056;-63
2022/04/29 06:55:04;;;;;;;15.88;8.20;;;8.60;99.90;;;;;;4935123;29;20122;-63
2022/04/29 06:57:30;;;;;;;17.05;8.88;;;8.60;99.90;;;;;;4931015;29;20183;-63
2022/04/29 06:59:57;;;;;;;18.20;8.90;;;8.70;99.90;;;;;;4934372;29;20050;-63
2022/04/29 07:02:22;;;;;;;16.95;9.20;;;8.80;99.90;;;;;;4938919;29;20114;-62
2022/04/29 07:04:48;;;;;;;17.13;9.80;;;8.80;99.90;;;;;;4938059;29;20522;-63
2022/04/29 07:07:14;;;;;;;19.35;9.40;;;8.90;99.90;;;;;;4940396;29;20051;-63
2022/04/29 07:09:40;;;;;;;17.15;9.18;;;8.90;99.90;;;;;;4930216;29;20531;-63
2022/04/29 07:12:07;;;;;;;18.60;9.60;;;9.00;99.90;;;;;;4937853;29;20509;-62
2022/04/29 07:14:34;;;;;;;23.33;8.93;;;9.00;99.90;;;;;;4938797;28;20147;-62
2022/04/29 07:16:59;;;;;;;15.38;9.15;;;9.10;99.90;;;;;;4929106;29;20086;-63
2022/04/29 07:19:25;;;;;;;17.67;9.40;;;9.10;99.90;;;;;;4931866;29;20043;-63
2022/04/29 07:21:51;;;;;;;19.48;9.80;;;9.20;99.90;;;;;;4945145;29;20051;-63
2022/04/29 07:24:17;;;;;;;14.77;8.73;;;9.20;99.90;;;;;;4926035;29;20087;-63
2022/04/29 07:26:43;;;;;;;20.90;8.98;;;9.10;99.90;;;;;;4924714;29;20126;-63
2022/04/29 07:29:08;;;;;;;20.42;8.77;;;9.20;99.90;;;;;;4934868;29;20131;-63
2022/04/29 07:31:34;;;;;;;16.10;9.00;;;9.20;99.90;;;;;;4930939;29;20134;-61
2022/04/29 07:34:00;;;;;;;20.40;9.13;;;9.40;99.90;;;;;;4927940;29;20067;-62
2022/04/29 07:41:54;;;;;;;14.98;7.80;;;9.60;99.90;;;;;;4933026;28;20036;-62
2022/04/29 07:44:19;;;;;;;13.13;7.70;;;9.60;99.90;;;;;;4933849;29;20490;-63
2022/04/29 07:46:47;;;;;;;13.85;7.43;;;9.70;99.90;;;;;;4934714;29;20044;-63
2022/04/29 07:49:14;;;;;;;16.40;7.95;;;9.80;99.90;;;;;;4934907;29;20118;-63
2022/04/29 07:51:40;;;;;;;14.43;8.05;;;9.90;99.90;;;;;;4934425;29;20047;-63
2022/04/29 07:54:07;;;;;;;15.95;8.05;;;10.00;99.90;;;;;;4933028;29;20063;-64
2022/04/29 07:56:33;;;;;;;13.75;8.07;;;10.10;99.90;;;;;;4935751;29;20091;-63
2022/04/29 07:58:59;;;;;;;19.05;9.10;;;10.10;99.90;;;;;;4940958;29;20536;-63
2022/04/29 08:01:28;;;;;;;15.15;8.57;;;10.10;99.90;;;;;;4935227;29;20517;-63
2022/04/29 08:03:54;;;;;;;14.25;8.05;;;10.20;99.90;;;;;;4924631;29;20063;-63
2022/04/29 08:06:21;;;;;;;16.17;7.90;;;10.30;99.90;;;;;;4933179;29;20047;-63
2022/04/29 08:08:46;;;;;;;15.30;7.95;;;10.30;99.90;;;;;;4929605;29;20502;-63
2022/04/29 08:11:12;;;;;;;13.80;7.43;;;10.20;99.90;;;;;;4935734;29;20063;-63
2022/04/29 08:13:38;;;;;;;18.10;7.70;;;10.30;99.90;;;;;;4931612;29;20048;-63
2022/04/29 08:16:04;;;;;;;15.10;7.80;;;10.30;99.90;;;;;;4927341;29;20043;-63
2022/04/29 08:18:30;;;;;;;11.20;7.22;;;10.50;99.90;;;;;;4934341;29;20063;-63
2022/04/29 08:20:56;;;;;;;12.57;7.68;;;10.60;99.90;;;;;;4931994;29;20078;-62
2022/04/29 08:23:22;;;;;;;16.35;7.65;;;10.70;99.90;;;;;;4934837;29;20040;-63
2022/04/29 08:25:48;;;;;;;18.25;7.78;;;10.70;99.90;;;;;;4934349;29;20099;-64
2022/04/29 08:28:14;;;;;;;15.85;7.90;;;10.70;99.90;;;;;;4935716;29;20043;-63
2022/04/29 08:30:39;;;;;;;15.32;7.53;;;10.80;99.90;;;;;;4934953;29;20106;-63
2022/04/29 08:33:05;;;;;;;13.82;7.40;;;11.00;99.90;;;;;;4929346;29;20080;-64
2022/04/29 08:35:31;;;;;;;12.98;7.47;;;10.90;99.90;;;;;;4936904;28;20409;-64
2022/04/29 08:37:57;;;;;;;12.52;7.63;;;11.10;99.90;;;;;;4925488;29;20114;-63
2022/04/29 08:40:24;;;;;;;13.35;7.25;;;11.10;99.90;;;;;;4934651;29;20051;-64
2022/04/29 08:42:50;;;;;;;11.32;7.43;;;11.10;99.90;;;;;;4933600;29;20495;-63
2022/04/29 08:45:17;;;;;;;13.93;7.35;;;11.20;99.90;;;;;;4942285;29;20459;-65
2022/04/29 08:47:44;;;;;;;12.88;7.43;;;11.30;99.90;;;;;;4933293;29;20039;-63
2022/04/29 08:50:13;;;;;;;12.43;6.50;;;11.60;99.90;;;;;;4932129;29;20170;-65
2022/04/29 08:52:39;;;;;;;11.35;7.40;;;11.80;99.90;;;;;;4932494;29;20075;-66
2022/04/29 09:01:00;;;;;;;9.73;5.72;;;12.30;99.90;;;;;;4919639;29;20492;-66
2022/04/29 09:03:26;;;;;;;10.07;5.32;;;12.60;99.90;;;;;;4922848;29;20118;-65
2022/04/29 09:05:52;;;;;;;11.60;5.82;;;12.30;99.90;;;;;;4926048;29;20062;-66
2022/04/29 09:08:20;;;;;;;14.35;6.63;;;12.10;99.90;;;;;;4930072;29;20122;-66
2022/04/29 09:10:51;;;;;;;12.65;6.63;;;12.10;99.90;;;;;;4931808;29;20494;-65
2022/04/29 09:13:22;;;;;;;10.80;5.90;;;12.10;99.90;;;;;;4935958;29;20402;-63
2022/04/29 09:15:54;;;;;;;10.07;6.40;;;12.20;99.90;;;;;;4932479;28;20507;-63
2022/04/29 09:18:46;;;;;;;11.68;6.70;;;12.20;99.90;;;;;;4933273;29;20099;-64
2022/04/29 09:21:27;;;;;;;10.73;6.70;;;12.10;99.90;;;;;;4928538;29;20039;-64
2022/04/29 09:23:59;;;;;;;14.18;7.75;;;12.10;99.90;;;;;;4936075;29;20529;-63
2022/04/29 09:26:26;;;;;;;12.40;6.35;;;12.10;99.90;;;;;;4930628;29;20079;-64
2022/04/29 09:29:11;;;;;;;11.10;6.15;;;12.20;99.90;;;;;;4934339;29;20075;-64
2022/04/29 09:31:53;;;;;;;11.77;6.72;;;12.20;99.90;;;;;;4926143;29;20051;-65
2022/04/29 09:34:19;;;;;;;13.65;6.60;;;12.30;99.90;;;;;;4924604;29;20419;-64
2022/04/29 09:36:45;;;;;;;15.02;6.80;;;12.40;99.90;;;;;;4924210;29;20043;-64
2022/04/29 09:42:05;;;;;;;13.38;8.13;;;12.60;99.90;;;;;;4919328;29;20043;-64
2022/04/29 09:44:35;;;;;;;11.73;7.32;;;12.70;99.90;;;;;;4928957;29;20461;-64
2022/04/29 09:47:21;;;;;;;10.37;6.70;;;12.80;99.90;;;;;;4933332;29;20040;-63
2022/04/29 09:49:58;;;;;;;12.65;7.28;;;13.00;99.90;;;;;;5001872;23;20799;-64
2022/04/29 09:52:26;;;;;;;11.48;6.63;;;13.10;99.90;;;;;;4958049;28;20581;-63
2022/04/29 09:54:53;;;;;;;11.48;7.35;;;13.20;99.90;;;;;;4963003;28;20118;-63
2022/04/29 09:57:26;;;;;;;12.13;7.15;;;13.40;99.90;;;;;;4970425;28;20270;-64
2022/04/29 09:59:54;;;;;;;9.05;7.07;;;13.50;99.90;;;;;;4955302;28;20046;-62
2022/04/29 10:02:24;;;;;;;13.30;7.88;;;13.70;99.90;;;;;;4937356;28;20043;-62
2022/04/29 10:04:51;;;;;;;12.70;7.72;;;13.70;99.90;;;;;;4932290;28;20040;-63
2022/04/29 10:07:19;;;;;;;12.25;7.13;;;14.00;99.90;;;;;;4949793;28;20047;-62
2022/04/29 10:09:50;;;;;;;10.77;7.40;;;14.10;99.90;;;;;;4944841;28;20047;-63
2022/04/29 10:12:17;;;;;;;11.02;7.07;;;14.30;99.90;;;;;;4935884;28;20136;-62
2022/04/29 10:14:45;;;;;;;9.10;7.18;;;14.30;99.90;;;;;;4930536;28;20052;-63
2022/04/29 10:22:53;;;;;;;11.68;6.85;;;14.10;99.90;;;;;;4955818;28;20055;-63
2022/04/29 10:25:20;;;;;;;11.02;6.43;;;13.90;99.90;;;;;;4957230;28;20090;-63
2022/04/29 10:27:49;;;;;;;12.50;7.07;;;13.80;99.90;;;;;;4946936;28;20039;-63
2022/04/29 10:30:28;;;;;;;9.32;6.65;;;13.80;99.90;;;;;;4942499;28;20493;-62
2022/04/29 10:33:10;;;;;;;10.07;6.18;;;13.80;99.90;;;;;;4955525;29;20039;-62
2022/04/29 10:35:42;;;;;;;14.02;6.32;;;13.60;99.90;;;;;;4950149;28;20126;-63
2022/04/29 10:38:13;;;;;;;12.48;6.10;;;13.50;99.90;;;;;;4948982;28;20069;-64
2022/04/29 10:40:38;;;;;;;7.20;5.80;;;13.30;99.90;;;;;;4955848;28;20512;-64
2022/04/29 10:43:09;;;;;;;9.98;6.43;;;13.40;99.90;;;;;;4975181;28;20031;-63
2022/04/29 10:45:36;;;;;;;10.13;6.63;;;13.40;99.90;;;;;;4940318;29;20451;-63
2022/04/29 10:48:30;;;;;;;12.35;6.35;;;13.40;99.90;;;;;;4955099;28;20396;-63
2022/04/29 10:50:56;;;;;;;11.90;5.68;;;13.50;99.90;;;;;;4956271;28;20054;-63
2022/04/29 10:53:23;;;;;;;11.38;5.57;;;13.60;99.90;;;;;;4950725;28;20122;-63
2022/04/29 10:55:49;;;;;;;10.50;6.38;;;13.50;99.90;;;;;;4951428;29;20122;-64
2022/04/29 10:58:20;;;;;;;9.25;5.53;;;13.60;99.90;;;;;;4955744;28;20447;-63
2022/04/29 11:01:14;;;;;;;9.35;5.90;;;13.70;99.90;;;;;;4956586;28;20070;-63
2022/04/29 11:03:43;;;;;;;11.32;4.45;;;13.70;99.90;;;;;;4937473;29;20082;-63
2022/04/29 11:06:11;;;;;;;11.10;5.88;;;13.30;99.90;;;;;;4940298;29;20062;-63
2022/04/29 11:08:37;;;;;;;9.43;5.68;;;13.40;99.90;;;;;;4962494;28;20273;-64
2022/04/29 11:11:04;;;;;;;9.18;6.10;;;13.40;99.90;;;;;;4944893;29;20043;-63
2022/04/29 11:13:30;;;;;;;9.60;5.38;;;13.40;99.90;;;;;;4955095;28;20054;-63
2022/04/29 11:16:13;;;;;;;8.13;5.28;;;13.50;99.90;;;;;;4940394;28;20047;-63
2022/04/29 11:18:42;;;;;;;11.07;5.97;;;13.30;98.90;;;;;;4946111;28;20036;-64
2022/04/29 11:26:46;;;;;;;11.40;6.00;;;13.30;99.90;;;;;;4960195;28;20044;-64
2022/04/29 11:29:12;;;;;;;14.25;5.80;;;13.30;99.90;;;;;;4948583;28;20049;-63
2022/04/29 11:31:39;;;;;;;5.60;3.97;;;13.20;99.90;;;;;;4952354;28;20097;-63
2022/04/29 11:34:13;;;;;;;7.40;4.40;;;13.00;98.90;;;;;;4962499;28;20043;-63
2022/04/29 11:36:40;;;;;;;12.15;5.45;;;13.00;99.90;;;;;;4942853;28;20132;-63
2022/04/29 11:39:23;;;;;;;7.53;3.85;;;13.00;99.90;;;;;;4948764;28;20043;-63
2022/04/29 11:41:59;;;;;;;8.32;5.25;;;12.90;99.20;;;;;;4949618;28;20055;-63
2022/04/29 11:44:39;;;;;;;11.00;6.53;;;12.90;99.90;;;;;;4954719;28;20507;-63
2022/04/29 11:47:05;;;;;;;8.77;6.00;;;13.00;99.90;;;;;;4958459;28;20031;-63
2022/04/29 11:49:34;;;;;;;13.40;5.55;;;13.20;99.90;;;;;;4946997;28;20039;-62
2022/04/29 11:52:25;;;;;;;9.73;5.82;;;13.40;99.90;;;;;;4944724;28;20039;-63
2022/04/29 11:54:57;;;;;;;9.65;5.75;;;13.50;99.60;;;;;;4948510;28;20049;-63
2022/04/29 11:57:25;;;;;;;11.35;6.30;;;13.60;99.90;;;;;;4961653;28;20154;-63
2022/04/29 11:59:51;;;;;;;8.88;6.07;;;13.60;99.70;;;;;;4969896;28;20045;-63
2022/04/29 12:02:21;;;;;;;8.43;5.05;;;13.80;99.90;;;;;;4941324;28;20035;-63
2022/04/29 12:04:58;;;;;;;7.45;4.70;;;13.90;98.50;;;;;;4952405;29;20658;-63
2022/04/29 12:07:25;;;;;;;6.65;4.90;;;13.70;98.50;;;;;;4961911;28;20062;-63
2022/04/29 12:09:52;;;;;;;11.55;6.22;;;13.50;97.60;;;;;;4942206;28;20114;-64
2022/04/29 12:12:30;;;;;;;10.98;5.88;;;13.60;99.90;;;;;;4952684;28;20568;-64
2022/04/29 12:14:59;;;;;;;8.23;5.68;;;13.70;99.70;;;;;;4953723;28;20047;-63
2022/04/29 12:17:36;;;;;;;11.10;6.00;;;13.60;99.90;;;;;;4953263;28;20039;-64
2022/04/29 12:20:03;;;;;;;8.50;5.05;;;13.50;99.40;;;;;;4935530;28;20027;-64
2022/04/29 12:22:31;;;;;;;10.50;6.13;;;13.50;99.70;;;;;;4950495;29;20114;-63
2022/04/29 12:25:16;;;;;;;8.40;5.70;;;13.60;99.90;;;;;;4949047;28;20608;-63
2022/04/29 12:27:41;;;;;;;9.63;5.90;;;13.50;99.90;;;;;;4950899;28;20079;-64
2022/04/29 12:36:10;;;;;;;8.98;5.82;;;13.50;99.20;;;;;;4945027;29;20047;-63
2022/04/29 12:38:37;;;;;;;8.75;5.47;;;13.60;99.10;;;;;;4953995;28;20035;-62
2022/04/29 12:41:27;;;;;;;12.32;6.68;;;13.40;98.60;;;;;;4954292;28;20512;-63
2022/04/29 12:43:53;;;;;;;9.35;7.07;;;13.50;99.40;;;;;;4944471;28;20478;-64
2022/04/29 12:46:21;;;;;;;9.90;7.00;;;13.60;99.90;;;;;;4954356;28;20118;-63
2022/04/29 12:48:47;;;;;;;11.55;7.50;;;13.70;99.90;;;;;;4949764;28;20047;-63
2022/04/29 12:51:31;;;;;;;11.88;6.90;;;13.80;99.90;;;;;;4946887;29;20621;-63
2022/04/29 12:53:58;;;;;;;15.10;6.80;;;13.80;99.40;;;;;;4953967;28;20478;-64
2022/04/29 12:56:35;;;;;;;9.27;5.28;;;13.80;99.90;;;;;;4951830;28;20039;-65
2022/04/29 12:59:03;;;;;;;12.65;7.50;;;13.60;99.10;;;;;;4937950;28;20046;-64
2022/04/29 13:01:40;;;;;;;12.15;6.53;;;13.40;99.70;;;;;;4937491;28;20040;-63
2022/04/29 13:04:06;;;;;;;13.13;7.70;;;13.40;99.90;;;;;;4947001;28;20122;-65
2022/04/29 13:06:32;;;;;;;10.18;6.93;;;13.50;99.90;;;;;;4948753;28;20046;-63
2022/04/29 13:08:58;;;;;;;12.00;7.32;;;13.50;99.90;;;;;;4950752;28;20043;-64
2022/04/29 13:11:25;;;;;;;11.27;7.85;;;13.50;99.90;;;;;;4950209;28;20097;-64
2022/04/29 13:13:52;;;;;;;11.43;7.70;;;13.60;99.90;;;;;;4938452;29;20121;-64
2022/04/29 13:16:20;;;;;;;14.23;8.10;;;13.70;99.90;;;;;;4942225;29;20504;-63
2022/04/29 13:18:46;;;;;;;16.17;7.88;;;13.80;99.90;;;;;;4950995;28;20082;-63
2022/04/29 13:21:13;;;;;;;11.45;7.25;;;13.80;99.90;;;;;;4953606;28;20394;-64
2022/04/29 13:23:41;;;;;;;12.25;7.72;;;13.90;99.90;;;;;;4936854;28;20044;-64
2022/04/29 13:26:07;;;;;;;12.07;6.25;;;14.00;99.90;;;;;;4944215;28;20039;-64
2022/04/29 13:28:34;;;;;;;10.77;6.22;;;14.10;99.70;;;;;;4951972;28;20054;-64
2022/04/29 13:31:02;;;;;;;11.05;7.30;;;13.70;99.00;;;;;;4951300;28;20098;-63
2022/04/29 13:33:28;;;;;;;15.07;7.90;;;13.50;99.90;;;;;;4946828;29;20055;-64
2022/04/29 13:35:54;;;;;;;12.32;7.65;;;13.50;99.90;;;;;;4953364;28;20046;-64
2022/04/29 13:38:21;;;;;;;17.00;9.27;;;13.40;99.90;;;;;;4953620;28;20498;-65
2022/04/29 13:40:46;;;;;;;14.10;8.63;;;13.30;99.90;;;;;;4948204;28;20050;-64
2022/04/29 13:43:12;;;;;;;12.63;7.53;;;13.30;99.90;;;;;;4945373;28;20031;-64
2022/04/29 13:45:40;;;;;;;9.68;5.85;;;13.10;99.90;;;;;;4952690;28;20057;-64
2022/04/29 13:48:06;;;;;;;12.82;7.80;;;12.90;99.90;;;;;;4958911;28;20261;-64
2022/04/29 13:50:33;;;;;;;12.82;8.60;;;12.80;99.90;;;;;;4937928;28;20048;-64
2022/04/29 13:53:14;;;;;;;11.45;7.90;;;12.90;99.90;;;;;;4948703;29;20041;-64
2022/04/29 13:55:40;;;;;;;;;;;12.90;99.90;;;;;;4960261;28;20526;-64
2022/04/29 13:58:06;;;;;;;13.75;8.48;;;12.90;99.30;;;;;;4953433;28;20464;-64
2022/04/29 14:00:32;;;;;;;15.90;8.40;;;13.00;99.90;;;;;;4941338;29;20130;-64
2022/04/29 14:02:58;;;;;;;14.13;7.63;;;13.00;99.90;;;;;;4950836;28;20167;-64
2022/04/29 14:05:24;;;;;;;15.63;8.45;;;13.00;99.90;;;;;;4949572;28;20047;-64
2022/04/29 14:07:51;;;;;;;12.05;7.65;;;13.10;99.90;;;;;;4950927;29;20062;-64
2022/04/29 14:10:17;;;;;;;10.15;7.03;;;13.00;99.90;;;;;;4953388;28;20370;-64
2022/04/29 14:12:43;;;;;;;10.15;6.88;;;12.90;99.90;;;;;;4947378;28;20693;-64
2022/04/29 14:15:10;;;;;;;11.95;7.63;;;12.90;98.80;;;;;;4951231;28;20035;-64
2022/04/29 14:17:36;;;;;;;12.15;5.75;;;13.00;99.60;;;;;;4957461;28;20049;-64
2022/04/29 14:20:03;;;;;;;12.73;7.70;;;13.10;99.90;;;;;;4958948;28;20446;-64
2022/04/29 14:22:29;;;;;;;13.10;7.35;;;13.10;99.90;;;;;;4931346;29;20612;-64
2022/04/29 14:24:55;;;;;;;13.25;8.18;;;13.30;99.90;;;;;;4947763;29;20122;-64
2022/04/29 14:27:21;;;;;;;12.05;6.57;;;13.40;99.90;;;;;;4927347;28;20058;-64
2022/04/29 14:29:48;;;;;;;12.75;7.18;;;13.50;99.90;;;;;;4934220;28;20051;-64
2022/04/29 14:32:14;;;;;;;10.15;6.32;;;13.50;99.60;;;;;;4935672;28;20047;-64
2022/04/29 14:34:44;;;;;;;9.25;7.00;;;13.30;98.70;;;;;;4942866;28;20043;-64
2022/04/29 14:37:14;;;;;;;9.23;5.95;;;13.30;99.10;;;;;;4928478;28;20045;-64
2022/04/29 14:39:41;;;;;;;9.75;6.47;;;13.20;99.00;;;;;;4933737;28;20195;-64
2022/04/29 14:42:06;;;;;;;10.98;7.20;;;13.10;98.90;;;;;;4931953;28;20050;-64
2022/04/29 14:44:34;;;;;;;11.80;6.85;;;13.10;99.00;;;;;;4941769;28;20039;-64
2022/04/29 14:47:00;;;;;;;12.27;6.85;;;13.00;99.30;;;;;;4938585;28;20445;-64
2022/04/29 14:49:26;;;;;;;10.10;5.10;;;13.20;99.90;;;;;;4936906;28;20050;-64
2022/04/29 14:51:53;;;;;;;9.27;6.43;;;13.00;97.50;;;;;;4947629;29;20039;-63
2022/04/29 14:54:18;;;;;;;10.18;6.30;;;12.90;99.20;;;;;;4940758;28;20079;-64
2022/04/29 14:56:44;;;;;;;9.70;5.68;;;12.90;99.80;;;;;;4925094;29;20138;-64
2022/04/29 14:59:11;;;;;;;8.90;6.03;;;12.90;99.40;;;;;;4937926;28;20545;-64
2022/04/29 15:01:41;;;;;;;7.60;4.85;;;12.80;98.90;;;;;;4937157;28;20039;-64
2022/04/29 15:04:10;;;;;;;11.13;5.85;;;12.80;99.40;;;;;;4941475;28;20430;-64
2022/04/29 15:06:35;;;;;;;10.80;6.30;;;12.70;99.60;;;;;;4949561;28;20123;-64
2022/04/29 15:17:20;;;;;;;7.97;5.68;;;12.70;99.90;;;;;;4951432;28;20130;-65
2022/04/29 15:19:47;;;;;;;9.55;5.88;;;12.70;99.90;;;;;;4952483;28;20043;-64
2022/04/29 15:22:12;;;;;;;10.02;4.50;;;12.70;99.90;;;;;;4943062;29;20089;-65
2022/04/29 15:24:39;;;;;;;9.30;6.30;;;12.60;99.00;;;;;;4939824;29;20043;-63
2022/04/29 15:27:05;;;;;;;9.82;5.43;;;12.60;99.80;;;;;;4942859;28;20035;-64
2022/04/29 15:29:30;;;;;;;10.38;5.60;;;12.50;99.80;;;;;;4929199;28;20043;-64
2022/04/29 15:31:56;;;;;;;10.32;5.82;;;12.60;99.90;;;;;;4945067;28;20043;-64
2022/04/29 15:34:22;;;;;;;10.75;5.60;;;12.60;99.80;;;;;;4949586;29;20043;-64